Dawson, Alabama
Current Conditions -  °F | °C
As of 10:35 AM on Monday 24 Nov 2014 (Local Time) from K4A9 Reporting Station
Scattered Clouds Scattered Clouds  
Wind Chill: 66°   Ceiling: Unl
Heat Index: 66°   Visibility: 10mi
Dew Point: 50°   Wind: 17mph
Humidity: 56%   Direction: 260°W
Pressure: 29.78"   Gusts: 25mph
Location:  34.3°N, 85.93°W
Report Text: K4A9 241635Z AUTO 26015G22KT 10SM SCT034 SCT042 19/10 A2978 RMK AO2
Loading
Personal Weather Stations






























Interactive Weather Map New forecast layout! Learn more

10-Day Weather Forecast

Advertisements
Track Severe Weather on mobile